createdAt,value
2022-08-21T11:19:50.356Z,26.70
2022-08-21T11:29:01.096Z,27.00
2022-08-21T11:46:04.125Z,28.60
2022-08-21T11:48:59.589Z,28.90
2022-08-21T11:51:51.340Z,28.70
2022-08-21T11:54:28.775Z,29.00
2022-08-21T11:57:22.166Z,29.30
2022-08-21T12:00:17.186Z,29.60
2022-08-21T12:33:33.237Z,29.90
2022-08-21T12:36:38.617Z,29.90
2022-08-21T12:39:15.047Z,29.70
2022-08-21T12:42:02.046Z,29.40
2022-08-21T12:44:43.662Z,29.30
2022-08-21T12:47:17.684Z,29.10
2022-08-21T13:16:07.527Z,27.50
2022-08-21T13:18:53.011Z,27.20
2022-08-21T13:21:23.290Z,27.20
2022-08-21T13:23:50.138Z,27.20
2022-08-21T13:26:22.645Z,27.20
2022-08-21T13:28:50.903Z,27.30
2022-08-21T13:31:27.291Z,27.30
2022-08-21T13:38:45.651Z,27.40
2022-08-21T13:41:32.281Z,27.30
2022-08-21T13:44:01.935Z,27.20
2022-08-21T13:46:33.149Z,27.10
2022-08-21T13:49:03.076Z,27.10
2022-08-21T13:51:33.045Z,27.20
2022-08-21T13:53:59.981Z,27.10
2022-08-21T14:00:56.451Z,27.10
2022-08-21T14:03:43.427Z,27.00
2022-08-21T14:06:23.980Z,27.00
2022-08-21T14:09:02.958Z,26.90
2022-08-21T14:11:35.186Z,26.80
2022-08-21T14:14:25.802Z,26.90
2022-08-21T14:33:52.845Z,26.80
2022-08-21T14:36:21.429Z,26.70
2022-08-21T14:38:52.535Z,26.60
2022-08-21T14:41:27.151Z,26.50
2022-08-21T14:44:08.127Z,26.50
2022-08-21T14:46:43.990Z,26.50
2022-08-21T14:53:11.002Z,26.40
2022-08-21T14:55:59.449Z,26.30
2022-08-21T14:58:26.442Z,26.30
2022-08-21T15:00:55.537Z,26.20
2022-08-21T15:03:22.692Z,26.10
2022-08-21T15:05:50.529Z,26.00
2022-08-21T15:08:18.664Z,25.80
2022-08-21T15:30:39.469Z,25.80
2022-08-21T15:33:07.834Z,25.80
2022-08-21T15:35:35.165Z,25.80
2022-08-21T15:38:02.708Z,25.80
2022-08-21T15:40:30.018Z,25.90
2022-08-21T15:43:00.501Z,25.70
2022-08-21T15:45:28.018Z,25.60
2022-08-21T15:53:03.876Z,25.50
2022-08-21T15:55:35.305Z,25.60
2022-08-21T15:58:06.086Z,25.60
2022-08-21T16:00:36.624Z,25.60
2022-08-21T16:03:06.808Z,25.60
2022-08-21T16:05:33.848Z,25.50
2022-08-21T16:08:51.437Z,25.40
2022-08-21T16:11:18.845Z,25.40
2022-08-21T16:13:47.607Z,25.50
2022-08-21T16:16:20.738Z,25.50
2022-08-21T16:18:48.635Z,25.40
2022-08-21T16:21:16.156Z,25.30
2022-08-21T16:25:18.801Z,25.10
2022-08-21T16:27:51.015Z,25.00
2022-08-21T16:30:19.678Z,24.90
2022-08-21T16:32:47.422Z,24.80
2022-08-21T16:35:18.159Z,24.70
2022-08-21T16:37:49.959Z,24.60
2022-08-21T16:40:19.682Z,24.50
2022-08-21T16:47:26.433Z,24.30
2022-08-21T16:49:54.620Z,24.10
2022-08-21T16:52:22.005Z,24.00
2022-08-21T16:54:49.100Z,23.90
2022-08-21T16:57:16.194Z,23.80
2022-08-21T16:59:43.967Z,23.90
2022-08-21T17:02:39.365Z,23.90
2022-08-21T17:10:01.424Z,24.20
2022-08-21T17:12:29.908Z,24.20
2022-08-21T17:15:07.312Z,24.00
2022-08-21T17:17:35.963Z,24.10
2022-08-21T17:20:05.761Z,24.00
2022-08-21T17:22:34.236Z,23.90
2022-08-21T17:25:01.068Z,23.90
2022-08-21T17:32:27.477Z,23.70
2022-08-21T17:34:54.581Z,23.50
2022-08-21T17:37:23.063Z,23.50
2022-08-21T17:39:51.602Z,23.40
2022-08-21T17:42:18.885Z,23.30
2022-08-21T17:44:46.155Z,23.30
2022-08-21T17:47:13.876Z,23.20
2022-08-21T17:54:25.217Z,22.90
2022-08-21T17:56:53.576Z,22.70
2022-08-21T17:59:24.553Z,22.50
2022-08-21T18:01:53.953Z,22.50
2022-08-21T18:04:21.205Z,22.40
2022-08-21T18:06:48.709Z,22.30
2022-08-21T18:09:18.862Z,22.20
2022-08-21T18:15:52.404Z,22.10
2022-08-21T18:18:21.021Z,22.00
2022-08-21T18:20:48.901Z,21.90
2022-08-21T18:23:16.155Z,21.80
2022-08-21T18:25:48.291Z,21.80
2022-08-21T18:28:16.785Z,21.50
2022-08-21T18:30:44.333Z,21.60
2022-08-21T18:38:20.968Z,21.50
2022-08-21T18:40:55.958Z,21.30
2022-08-21T18:43:23.888Z,21.30
2022-08-21T18:45:51.067Z,21.30
2022-08-21T18:48:18.259Z,21.20
2022-08-21T18:50:48.142Z,21.10
2022-08-21T18:53:27.464Z,21.10
2022-08-21T19:01:02.037Z,21.00
2022-08-21T19:03:29.497Z,20.90
2022-08-21T19:05:56.435Z,20.80
2022-08-21T19:08:26.762Z,20.90
2022-08-21T19:11:01.365Z,20.70
2022-08-21T19:13:30.378Z,20.70
2022-08-21T19:15:59.565Z,20.50
2022-08-21T19:21:09.281Z,20.40
2022-08-21T19:23:37.524Z,20.30
2022-08-21T19:26:10.072Z,20.20
2022-08-21T19:31:34.080Z,20.10
2022-08-21T19:34:06.755Z,20.00
2022-08-21T19:36:35.680Z,19.90
2022-08-21T19:44:25.190Z,19.80
2022-08-21T19:46:54.351Z,19.50
2022-08-21T19:49:33.734Z,19.40
2022-08-21T19:52:01.691Z,19.40
2022-08-21T19:54:32.550Z,19.40
2022-08-21T19:57:06.682Z,19.20
2022-08-21T19:59:35.843Z,19.20
2022-08-21T20:07:09.524Z,19.00
2022-08-21T20:09:40.509Z,19.00
2022-08-21T20:12:10.973Z,19.00
2022-08-21T20:14:45.496Z,19.10
2022-08-21T20:17:15.817Z,19.10
2022-08-21T20:19:44.499Z,19.10
2022-08-21T20:22:12.264Z,19.10
2022-08-21T20:28:51.648Z,19.10
2022-08-21T20:31:21.035Z,19.20
2022-08-21T20:33:52.049Z,19.10
2022-08-21T20:36:22.802Z,19.10
2022-08-21T20:38:52.909Z,19.00
2022-08-21T20:41:30.416Z,19.00
2022-08-21T20:46:48.985Z,19.10
2022-08-21T20:49:25.939Z,19.00
2022-08-21T20:51:56.467Z,19.00
2022-08-21T20:54:37.029Z,18.90
2022-08-21T20:57:14.131Z,18.90
2022-08-21T20:59:49.980Z,18.80
2022-08-21T21:06:42.830Z,18.60
2022-08-21T21:09:33.467Z,18.50
2022-08-21T21:12:04.553Z,18.40
2022-08-21T21:14:51.860Z,18.50
2022-08-21T21:17:32.577Z,18.40
2022-08-21T21:20:10.563Z,18.30
2022-08-21T21:26:46.139Z,18.10
2022-08-21T21:29:56.417Z,18.10
2022-08-21T21:32:23.738Z,18.10
2022-08-21T21:34:51.335Z,18.20
2022-08-21T21:37:37.087Z,18.20
2022-08-21T21:40:29.168Z,18.20
2022-08-21T21:49:05.636Z,18.00
2022-08-21T21:52:06.018Z,17.90
2022-08-21T21:55:01.694Z,17.90
2022-08-21T21:57:46.042Z,17.90
2022-08-21T22:00:24.051Z,17.90
2022-08-21T22:02:56.489Z,17.90
2022-08-21T22:08:59.794Z,17.70
2022-08-21T22:11:39.985Z,17.60
2022-08-21T22:14:22.667Z,17.60
2022-08-21T22:16:51.157Z,17.60
2022-08-21T22:19:25.407Z,17.50
2022-08-21T22:22:00.736Z,17.30
2022-08-21T22:24:33.518Z,17.30
2022-08-21T22:32:48.700Z,17.20
2022-08-21T22:35:25.939Z,17.20
2022-08-21T22:37:56.949Z,17.20
2022-08-21T22:40:35.091Z,17.00
2022-08-21T22:43:17.292Z,16.80
2022-08-21T22:46:00.206Z,16.90
2022-08-21T22:53:40.305Z,16.80
2022-08-21T22:56:09.821Z,17.00
2022-08-21T22:58:53.375Z,17.10
2022-08-21T23:01:21.020Z,17.10
2022-08-21T23:03:57.488Z,17.20
2022-08-21T23:06:44.049Z,17.10
2022-08-21T23:15:18.089Z,16.60
2022-08-21T23:18:25.849Z,16.50
2022-08-21T23:21:40.821Z,16.60
2022-08-21T23:24:34.767Z,16.50
2022-08-21T23:35:14.168Z,16.50
2022-08-21T23:38:20.999Z,16.50
2022-08-21T23:40:55.806Z,16.40
2022-08-21T23:43:43.854Z,16.40
2022-08-21T23:46:18.716Z,16.40
2022-08-21T23:49:24.378Z,16.40
2022-08-21T23:57:47.693Z,16.20
